Latest Coastal Weather Observations for Bairnsdale

IDV60701

Issued at 4:42 pm EST Thursday 25 May 2017 (issued every 10 minutes, with the page automatically refreshed every 10 minutes)

About coastal observations | Map of coastal stations | Coastal observations for VIC | Marine services | Other Formats
Station Details ID: 085279 Name: BAIRNSDALE AIRPORT Lat: -37.88 Lon: 147.57 Height: 49.4 m
Data from the previous 72 hours. | See also: Recent months at Bairnsdale
Date/Time
EST
Temp
°C
Wind Pressure Rain since
9am
mm
Weather Cloud Vis
km
Sea
Height
m
Swell
Dir  Spd
kts
Gust
kts
hPa Trend Height
m
Period
s
Dir
25/04:30pm 14.0 SW 6 7 1018.1 - 0.0 - - 10 - - - -
25/04:00pm 15.4 SW 7 10 1017.9 - 0.0 - - 10 - - - -
25/03:30pm 15.9 WSW 7 9 1017.9 - 0.0 - - 10 - - - -
25/03:00pm 16.0 SW 6 8 1017.7 - 0.0 - - 10 - - - -
25/02:30pm 17.2 S 6 7 1017.6 - 0.0 - - 10 - - - -
25/02:00pm 18.0 WSW 5 10 1017.8 - 0.0 - - 10 - - - -
25/01:30pm 17.9 W 6 8 1017.8 - 0.0 - - 10 - - - -
25/01:00pm 17.7 NW 5 7 1018.0 - 0.0 - - 10 - - - -
25/12:30pm 17.4 WNW 4 8 1018.2 - 0.0 - - 10 - - - -
25/12:00pm 17.0 NNW 3 5 1018.7 - 0.0 - - 10 - - - -
25/11:30am 16.5 NW 4 6 1019.1 - 0.0 - - 10 - - - -
25/11:00am 15.6 WNW 5 7 1019.8 - 0.0 - - 10 - - - -
25/10:30am 15.1 NW 7 8 1020.2 - 0.0 - - 10 - - - -
25/10:00am 14.3 NW 6 8 1020.3 - 0.0 - - 10 - - - -
25/09:30am 12.9 NW 7 9 1020.4 - 0.0 - - 10 - - - -
25/09:00am 11.8 NW 7 9 1020.3 - 0.0 - - 10 - - - -
25/08:30am 10.2 WNW 7 8 1020.3 - 0.0 - - 10 - - - -
25/08:00am 7.2 NW 7 8 1020.3 - 0.0 - - 10 - - - -
25/07:30am 6.5 NW 6 8 1020.1 - 0.0 - Partly cloudy 10 - - - -
25/07:00am 7.4 NW 7 8 1020.0 - 0.0 - Partly cloudy 10 - - - -
25/06:30am 7.8 NW 8 9 1019.7 - 0.0 - Partly cloudy 10 - - - -
25/06:00am 7.2 WNW 7 9 1019.4 - 0.0 - - 10 - - - -
25/05:30am 5.8 NW 4 6 1019.2 - 0.0 - - 10 - - - -
25/05:00am 7.5 NW 7 9 1018.9 - 0.0 - - 10 - - - -
25/04:30am 7.4 NW 7 9 1018.8 - 0.0 - - 10 - - - -
25/04:00am 8.0 NW 7 9 1018.7 - 0.0 - Partly cloudy 10 - - - -
25/03:30am 8.4 NNW 6 7 1018.7 - 0.0 - Partly cloudy 10 - - - -
25/03:00am 9.5 NNW 6 7 1018.8 - 0.0 - Cloudy 10 - - - -
25/02:30am 8.9 NW 5 6 1018.8 - 0.0 - Cloudy 10 - - - -
25/02:00am 9.9 NW 5 7 1018.8 - 0.0 - Cloudy 10 - - - -
25/01:30am 10.8 WNW 6 8 1018.7 - 0.0 - Cloudy 10 - - - -
25/01:00am 11.2 WNW 7 9 1018.6 - 0.0 - Cloudy 10 - - - -
25/12:30am 9.6 WNW 6 8 1018.7 - 0.0 - Cloudy 10 - - - -
25/12:00am 8.4 NW 6 7 1018.8 - 0.0 - Mostly cloudy 10 - - - -
 
Date/Time
EST
Temp
°C
Wind Pressure Rain since
9am
mm
Weather Cloud Vis
km
Sea
Height
m
Swell
Dir  Spd
kts
Gust
kts
hPa Trend Height
m
Period
s
Dir
24/11:30pm 8.7 NNW 6 7 1018.8 - 0.0 - Partly cloudy 10 - - - -
24/11:00pm 10.3 WNW 6 7 1018.8 - 0.0 - Cloudy 10 - - - -
24/10:30pm 9.2 NW 6 7 1018.8 - 0.0 - Cloudy 10 - - - -
24/10:00pm 8.4 NW 5 6 1018.8 - 0.0 - Partly cloudy 10 - - - -
24/09:30pm 8.4 NW 4 5 1018.7 - 0.0 - - 10 - - - -
24/09:00pm 10.6 WNW 7 9 1018.6 - 0.0 - Mostly clear 10 - - - -
24/08:30pm 12.0 W 9 14 1018.5 - 0.0 - - 10 - - - -
24/08:00pm 12.1 W 11 17 1018.3 - 0.0 - - 10 - - - -
24/07:30pm 12.6 WSW 13 20 1018.2 - 0.0 - - 10 - - - -
24/07:00pm 12.5 WSW 14 18 1017.8 - 0.0 - - 10 - - - -
24/06:30pm 12.9 WSW 14 19 1017.7 - 0.0 - Partly cloudy 10 - - - -
24/06:00pm 13.2 WSW 17 23 1017.1 - 0.0 - - 10 - - - -
24/05:30pm 13.1 WSW 17 23 1016.5 - 0.0 - Partly cloudy 10 - - - -
24/05:00pm 13.7 WSW 16 22 1016.1 - 0.0 - Partly cloudy 10 - - - -
24/04:30pm 14.7 WSW 15 19 1015.7 - 0.0 - Partly cloudy 10 - - - -
24/04:00pm 15.1 WSW 16 23 1015.1 - 0.0 - Partly cloudy 10 - - - -
24/03:30pm 16.7 WSW 16 22 1014.5 - 0.0 - Partly cloudy 10 - - - -
24/03:01pm 15.9 WSW 17 29 1014.0 - 0.0 - - 10 - - - -
24/03:00pm 15.9 WSW 17 24 1014.0 - 0.0 - - 10 - - - -
24/02:30pm 17.4 WSW 18 25 1013.6 - 0.0 - - 10 - - - -
24/02:13pm 17.5 WSW 17 28 1013.3 - 0.0 - Partly cloudy 10 - - - -
24/02:00pm 17.6 WSW 18 26 1013.3 - 0.0 - Partly cloudy 10 - - - -
24/01:41pm 16.4 WSW 18 28 1013.1 - 0.0 - Partly cloudy 10 - - - -
24/01:30pm 16.6 W 19 25 1013.0 - 0.0 - Partly cloudy 10 - - - -
24/01:00pm 17.6 WSW 19 27 1013.0 - 0.0 - - 10 - - - -
24/12:30pm 17.2 WSW 16 23 1013.1 - 0.0 - Partly cloudy 10 - - - -
24/12:00pm 17.7 WSW 15 22 1013.3 - 0.0 - - 10 - - - -
24/11:30am 17.6 WSW 12 17 1013.5 - 0.0 - - 10 - - - -
24/11:00am 16.5 WSW 13 21 1013.8 - 0.0 - - 10 - - - -
24/10:30am 15.9 WSW 13 16 1013.7 - 0.0 - - 10 - - - -
24/10:00am 15.0 WSW 13 18 1013.6 - 0.0 - - 10 - - - -
24/09:30am 13.9 WSW 10 14 1013.5 - 0.0 - Partly cloudy 10 - - - -
24/09:00am 13.8 W 11 16 1013.4 - 0.6 - Partly cloudy 10 - - - -
24/08:30am 12.5 WNW 7 9 1013.0 - 0.6 - Partly cloudy 10 - - - -
24/08:00am 11.8 WNW 7 10 1013.0 - 0.6 - Partly cloudy 10 - - - -
24/07:30am 12.0 W 7 9 1012.8 - 0.4 - Partly cloudy 10 - - - -
24/07:00am 10.2 NW 7 8 1012.3 - 0.4 - Partly cloudy 10 - - - -
24/06:30am 9.6 WNW 6 8 1011.9 - 0.4 - Partly cloudy 10 - - - -
24/06:20am 9.0 WSW 7 9 1011.8 - 0.4 - Partly cloudy 10 - - - -
24/06:00am 8.0 WSW 4 5 1011.4 - 0.4 - - 2 - - - -
24/05:57am 8.4 WSW 4 5 1011.4 - 0.4 - - 4 - - - -
24/05:30am 9.2 WNW 5 6 1011.3 - 0.4 - Partly cloudy 10 - - - -
24/05:00am 10.9 SW 5 7 1011.4 - 0.4 - Partly cloudy 10 - - - -
24/04:30am 10.8 NW 7 9 1011.0 - 0.4 - Partly cloudy 10 - - - -
24/04:00am 11.5 WNW 7 13 1011.1 - 0.4 - Partly cloudy 10 - - - -
24/03:30am 9.6 WNW 6 7 1011.1 - 0.0 - Partly cloudy 10 - - - -
24/03:00am 9.8 NW 6 8 1011.4 - 0.0 - Cloudy 10 - - - -
24/02:30am 9.5 WNW 3 6 1011.5 - 0.0 - Partly cloudy 10 - - - -
24/02:00am 9.1 NNE 2 4 1011.6 - 0.0 - Partly cloudy 10 - - - -
24/01:30am 9.4 SSW 3 5 1011.9 - 0.0 - Partly cloudy 10 - - - -
24/01:00am 8.9 S 4 7 1012.4 - 0.0 - Partly cloudy 10 - - - -
24/12:30am 8.6 CALM 0 0 1012.5 - 0.0 - Partly cloudy 10 - - - -
24/12:04am 8.0 SSW 3 3 1012.8 - 0.0 - Partly cloudy 10 - - - -
24/12:00am 7.7 SSW 2 3 1012.9 - 0.0 - Partly cloudy 10 - - - -
 
Date/Time
EST
Temp
°C
Wind Pressure Rain since
9am
mm
Weather Cloud Vis
km
Sea
Height
m
Swell
Dir  Spd
kts
Gust
kts
hPa Trend Height
m
Period
s
Dir
23/11:30pm 7.8 ESE 2 3 1013.2 - 0.0 - - 3 - - - -
23/11:28pm 7.5 ESE 2 3 1013.2 - 0.0 - - 5 - - - -
23/11:00pm 9.3 CALM 0 0 1013.5 - 0.0 - Partly cloudy 10 - - - -
23/10:58pm 9.4 CALM 0 0 1013.5 - 0.0 - Partly cloudy 10 - - - -
23/10:40pm 8.0 CALM 0 0 1013.9 - 0.0 - - 5 - - - -
23/10:38pm 8.0 CALM 0 0 1013.9 - 0.0 - - 10 - - - -
23/10:30pm 8.0 CALM 0 1 1013.9 - 0.0 - - 10 - - - -
23/10:18pm 8.3 ENE 3 4 1014.1 - 0.0 - - 2 - - - -
23/10:00pm 9.0 E 3 4 1014.0 - 0.0 - - 10 - - - -
23/09:30pm 9.9 SSE 4 5 1014.2 - 0.0 - Partly cloudy 10 - - - -
23/09:00pm 9.6 NNE 3 4 1014.3 - 0.0 - Partly cloudy 10 - - - -
23/08:30pm 10.1 NE 1 4 1014.3 - 0.0 - Partly cloudy 10 - - - -
23/08:00pm 10.3 ENE 4 5 1014.3 - 0.0 - - 10 - - - -
23/07:30pm 11.8 N 3 4 1014.3 - 0.0 - Partly cloudy 10 - - - -
23/07:00pm 12.2 CALM 0 3 1014.4 - 0.0 - Partly cloudy 10 - - - -
23/06:30pm 14.0 NNE 3 4 1014.4 - 0.0 - Partly cloudy 10 - - - -
23/06:00pm 15.4 N 5 7 1014.4 - 0.0 - Cloudy 10 - - - -
23/05:30pm 15.6 ENE 5 7 1014.2 - 0.0 - Partly cloudy 10 - - - -
23/05:00pm 16.0 E 3 5 1014.2 - 0.0 - Partly cloudy 10 - - - -
23/04:30pm 17.2 E 3 4 1014.0 - 0.0 - Partly cloudy 10 - - - -
23/04:00pm 18.2 ENE 5 6 1013.9 - 0.0 - - 10 - - - -
23/03:30pm 17.8 ENE 5 6 1014.0 - 0.0 - - 10 - - - -
23/03:00pm 17.6 ENE 4 5 1014.3 - 0.0 - Mostly clear 10 - - - -
23/02:30pm 18.4 NE 2 5 1014.3 - 0.0 - - 10 - - - -
23/02:00pm 18.7 CALM 0 0 1014.7 - 0.0 - - 10 - - - -
23/01:30pm 18.6 WNW 6 9 1015.0 - 0.0 - - 10 - - - -
23/01:00pm 19.0 NNW 7 9 1014.9 - 0.0 - - 10 - - - -
23/12:30pm 19.2 NW 7 10 1015.7 - 0.0 - - 10 - - - -
23/12:00pm 18.6 NW 7 10 1016.0 - 0.0 - - 10 - - - -
23/11:30am 17.8 NNW 6 8 1016.4 - 0.0 - - 10 - - - -
23/11:00am 18.0 NW 7 9 1017.2 - 0.0 - - 10 - - - -
23/10:30am 16.4 NW 6 9 1017.7 - 0.0 - - 10 - - - -
23/10:00am 15.8 N 4 6 1017.7 - 0.0 - - 10 - - - -
23/09:30am 14.9 N 7 10 1018.0 - 0.0 - - 10 - - - -
23/09:00am 12.2 N 5 9 1018.3 - 0.2 - Mostly clear 10 - - - -
23/08:30am 11.4 N 3 6 1018.5 - 0.2 - - 10 - - - -
23/08:00am 10.9 N 6 9 1018.6 - 0.2 - Partly cloudy 10 - - - -
23/07:30am 11.1 NW 5 6 1018.6 - 0.2 - - 10 - - - -
23/07:00am 10.6 WNW 7 9 1018.8 - 0.2 - - 10 - - - -
23/06:30am 10.0 NW 7 8 1018.3 - 0.2 - - 10 - - - -
23/06:00am 9.9 NNW 9 13 1018.1 - 0.2 - Cloudy 10 - - - -
23/05:30am 10.1 NW 6 9 1018.1 - 0.2 - - 10 - - - -
23/05:00am 11.4 SW 8 10 1017.7 - 0.2 - - 10 - - - -
23/04:30am 10.2 SW 7 9 1017.4 - 0.2 - Partly cloudy 10 - - - -
23/04:00am 9.5 WNW 2 4 1017.0 - 0.2 - - 10 - - - -
23/03:30am 9.8 CALM 0 0 1016.7 - 0.2 - - 10 - - - -
23/03:00am 9.5 SW 3 4 1016.8 - 0.2 - Cloudy 10 - - - -
23/02:30am 10.4 NNE 3 5 1016.9 - 0.2 - - 10 - - - -
23/02:00am 10.1 NNE 4 5 1016.9 - 0.2 - - 10 - - - -
23/01:30am 11.0 NNE 7 9 1017.2 - 0.2 - - 10 - - - -
23/01:00am 10.6 NNE 5 7 1017.6 - 0.2 - - 10 - - - -
23/12:30am 11.1 N 6 7 1017.9 - 0.2 - - 10 - - - -
23/12:00am 10.9 NNE 7 8 1018.0 - 0.2 - - 10 - - - -
 
Date/Time
EST
Temp
°C
Wind Pressure Rain since
9am
mm
Weather Cloud Vis
km
Sea
Height
m
Swell
Dir  Spd
kts
Gust
kts
hPa Trend Height
m
Period
s
Dir
22/11:30pm 10.8 NE 7 9 1018.2 - 0.2 - - 10 - - - -
22/11:00pm 10.9 NNE 6 7 1018.5 - 0.2 - - 10 - - - -
22/10:30pm 10.5 NE 5 7 1018.9 - 0.2 - - 10 - - - -
22/10:00pm 11.2 NE 6 7 1018.8 - 0.2 - - 10 - - - -
22/09:30pm 11.2 NE 6 7 1018.8 - 0.2 - - 10 - - - -
22/09:00pm 12.1 NE 6 9 1018.9 - 0.2 - - 10 - - - -
22/08:30pm 12.6 NE 5 6 1019.0 - 0.2 - - 10 - - - -
22/08:00pm 12.4 NNE 5 6 1019.1 - 0.2 - - 10 - - - -
22/07:30pm 13.9 ENE 7 8 1018.9 - 0.2 - - 10 - - - -
22/07:00pm 13.3 E 7 8 1018.9 - 0.2 - - 10 - - - -
22/06:30pm 13.2 ESE 7 8 1019.0 - 0.2 - - 10 - - - -
22/06:00pm 14.0 ESE 6 7 1018.8 - 0.2 - - 10 - - - -
22/05:30pm 14.3 E 7 9 1018.3 - 0.2 - - 10 - - - -
22/05:00pm 15.6 ESE 7 9 1018.2 - 0.2 - - 10 - - - -

Other Formats:

Comma delimited format used in spreadsheet applications
http://www.bom.gov.au/fwo/IDV60701/IDV60701.94912.axf

JavaScript Object Notation format (JSON) in row-major order
http://www.bom.gov.au/fwo/IDV60701/IDV60701.94912.json